sensor_id;sensor_type;location;lat;lon;timestamp;pressure;altitude;pressure_sealevel;temperature;humidity
64354;BME280;50681;53.334;-6.536;2023-03-26T00:01:23;99410.56;;;8.96;100.00
64354;BME280;50681;53.334;-6.536;2023-03-26T00:03:50;99392.03;;;8.72;100.00
64354;BME280;50681;53.334;-6.536;2023-03-26T00:06:29;99384.44;;;8.74;100.00
64354;BME280;50681;53.334;-6.536;2023-03-26T00:08:56;99369.44;;;8.59;100.00
64354;BME280;50681;53.334;-6.536;2023-03-26T00:11:24;99374.41;;;8.65;100.00
64354;BME280;50681;53.334;-6.536;2023-03-26T00:13:54;99403.16;;;8.79;100.00
64354;BME280;50681;53.334;-6.536;2023-03-26T00:16:29;99369.91;;;8.61;100.00
64354;BME280;50681;53.334;-6.536;2023-03-26T00:18:58;99387.78;;;8.57;100.00
64354;BME280;50681;53.334;-6.536;2023-03-26T00:21:32;99398.00;;;8.68;100.00
64354;BME280;50681;53.334;-6.536;2023-03-26T00:24:06;99407.69;;;8.70;100.00
64354;BME280;50681;53.334;-6.536;2023-03-26T00:26:34;99394.47;;;8.59;100.00
64354;BME280;50681;53.334;-6.536;2023-03-26T00:29:00;99408.09;;;8.63;100.00
64354;BME280;50681;53.334;-6.536;2023-03-26T00:31:27;99411.59;;;8.63;100.00
64354;BME280;50681;53.334;-6.536;2023-03-26T00:33:53;99375.97;;;8.30;100.00
64354;BME280;50681;53.334;-6.536;2023-03-26T00:36:20;99392.69;;;8.41;100.00
64354;BME280;50681;53.334;-6.536;2023-03-26T00:38:46;99415.00;;;8.55;100.00
64354;BME280;50681;53.334;-6.536;2023-03-26T00:41:19;99395.88;;;8.43;100.00
64354;BME280;50681;53.334;-6.536;2023-03-26T00:43:52;99395.06;;;8.42;100.00
64354;BME280;50681;53.334;-6.536;2023-03-26T00:46:20;99410.00;;;8.48;100.00
64354;BME280;50681;53.334;-6.536;2023-03-26T00:48:49;99403.81;;;8.48;100.00
64354;BME280;50681;53.334;-6.536;2023-03-26T00:51:16;99388.09;;;8.41;100.00
64354;BME280;50681;53.334;-6.536;2023-03-26T00:53:46;99417.75;;;8.64;100.00
64354;BME280;50681;53.334;-6.536;2023-03-26T00:56:12;99418.91;;;8.49;100.00
64354;BME280;50681;53.334;-6.536;2023-03-26T00:58:42;99413.41;;;8.40;100.00
64354;BME280;50681;53.334;-6.536;2023-03-26T01:01:11;99425.94;;;8.45;100.00
64354;BME280;50681;53.334;-6.536;2023-03-26T01:03:42;99422.09;;;8.51;100.00
64354;BME280;50681;53.334;-6.536;2023-03-26T01:06:19;99416.78;;;8.46;100.00
64354;BME280;50681;53.334;-6.536;2023-03-26T01:08:49;99399.66;;;8.28;100.00
64354;BME280;50681;53.334;-6.536;2023-03-26T01:11:21;99410.53;;;8.36;100.00
64354;BME280;50681;53.334;-6.536;2023-03-26T01:17:00;99425.16;;;8.44;100.00
64354;BME280;50681;53.334;-6.536;2023-03-26T01:22:16;99405.25;;;8.31;100.00
64354;BME280;50681;53.334;-6.536;2023-03-26T01:24:43;99427.72;;;8.63;100.00
64354;BME280;50681;53.334;-6.536;2023-03-26T01:29:54;99438.34;;;9.05;100.00
64354;BME280;50681;53.334;-6.536;2023-03-26T01:35:22;99449.66;;;9.39;100.00
64354;BME280;50681;53.334;-6.536;2023-03-26T01:40:47;99423.84;;;9.47;100.00
64354;BME280;50681;53.334;-6.536;2023-03-26T01:43:23;99428.34;;;9.60;100.00
64354;BME280;50681;53.334;-6.536;2023-03-26T01:45:55;99441.88;;;9.69;100.00
64354;BME280;50681;53.334;-6.536;2023-03-26T01:48:34;99441.91;;;9.78;100.00
64354;BME280;50681;53.334;-6.536;2023-03-26T01:51:03;99438.72;;;9.76;100.00
64354;BME280;50681;53.334;-6.536;2023-03-26T01:53:53;99430.19;;;9.42;100.00
64354;BME280;50681;53.334;-6.536;2023-03-26T01:56:27;99445.56;;;9.82;100.00
64354;BME280;50681;53.334;-6.536;2023-03-26T01:59:02;99443.88;;;9.54;100.00
64354;BME280;50681;53.334;-6.536;2023-03-26T02:01:53;99420.13;;;9.56;100.00
64354;BME280;50681;53.334;-6.536;2023-03-26T02:04:38;99454.34;;;9.88;100.00
64354;BME280;50681;53.334;-6.536;2023-03-26T02:07:20;99452.75;;;9.87;100.00
64354;BME280;50681;53.334;-6.536;2023-03-26T02:09:50;99440.66;;;9.84;100.00
64354;BME280;50681;53.334;-6.536;2023-03-26T02:12:18;99440.06;;;9.55;100.00
64354;BME280;50681;53.334;-6.536;2023-03-26T02:14:49;99451.28;;;9.49;100.00
64354;BME280;50681;53.334;-6.536;2023-03-26T02:17:14;99435.59;;;9.19;100.00
64354;BME280;50681;53.334;-6.536;2023-03-26T02:19:41;99460.72;;;9.37;100.00
64354;BME280;50681;53.334;-6.536;2023-03-26T02:22:11;99442.97;;;9.36;100.00
64354;BME280;50681;53.334;-6.536;2023-03-26T02:24:40;99455.94;;;9.34;100.00
64354;BME280;50681;53.334;-6.536;2023-03-26T02:27:05;99450.53;;;9.25;100.00
64354;BME280;50681;53.334;-6.536;2023-03-26T02:29:36;99458.28;;;9.27;100.00
64354;BME280;50681;53.334;-6.536;2023-03-26T02:32:17;99465.25;;;9.51;100.00
64354;BME280;50681;53.334;-6.536;2023-03-26T02:34:44;99466.53;;;9.53;100.00
64354;BME280;50681;53.334;-6.536;2023-03-26T02:37:09;99463.34;;;9.51;100.00
64354;BME280;50681;53.334;-6.536;2023-03-26T02:39:35;99453.69;;;9.50;100.00
64354;BME280;50681;53.334;-6.536;2023-03-26T02:42:00;99461.19;;;9.62;100.00
64354;BME280;50681;53.334;-6.536;2023-03-26T02:44:26;99458.91;;;9.78;100.00
64354;BME280;50681;53.334;-6.536;2023-03-26T02:46:52;99485.09;;;9.87;100.00
64354;BME280;50681;53.334;-6.536;2023-03-26T02:49:18;99479.09;;;9.90;100.00
64354;BME280;50681;53.334;-6.536;2023-03-26T02:51:44;99493.25;;;10.04;100.00
64354;BME280;50681;53.334;-6.536;2023-03-26T02:54:09;99477.50;;;9.89;100.00
64354;BME280;50681;53.334;-6.536;2023-03-26T02:56:34;99490.44;;;9.78;100.00
64354;BME280;50681;53.334;-6.536;2023-03-26T02:59:00;99494.19;;;9.68;100.00
64354;BME280;50681;53.334;-6.536;2023-03-26T03:01:28;99507.59;;;9.82;100.00
64354;BME280;50681;53.334;-6.536;2023-03-26T03:03:59;99512.63;;;9.75;100.00
64354;BME280;50681;53.334;-6.536;2023-03-26T03:06:25;99520.66;;;9.66;100.00
64354;BME280;50681;53.334;-6.536;2023-03-26T03:08:55;99516.81;;;9.58;100.00
64354;BME280;50681;53.334;-6.536;2023-03-26T03:11:20;99512.09;;;9.64;100.00
64354;BME280;50681;53.334;-6.536;2023-03-26T03:13:47;99520.94;;;9.55;100.00
64354;BME280;50681;53.334;-6.536;2023-03-26T03:16:12;99515.47;;;9.47;100.00
64354;BME280;50681;53.334;-6.536;2023-03-26T03:18:37;99512.59;;;9.43;100.00
64354;BME280;50681;53.334;-6.536;2023-03-26T03:21:04;99530.13;;;9.54;100.00
64354;BME280;50681;53.334;-6.536;2023-03-26T03:23:30;99534.38;;;9.78;100.00
64354;BME280;50681;53.334;-6.536;2023-03-26T03:25:56;99529.97;;;9.60;100.00
64354;BME280;50681;53.334;-6.536;2023-03-26T03:28:22;99544.13;;;9.65;100.00
64354;BME280;50681;53.334;-6.536;2023-03-26T03:30:48;99537.25;;;9.82;100.00
64354;BME280;50681;53.334;-6.536;2023-03-26T03:33:19;99529.53;;;9.44;100.00
64354;BME280;50681;53.334;-6.536;2023-03-26T03:35:46;99536.72;;;9.48;100.00
64354;BME280;50681;53.334;-6.536;2023-03-26T03:38:13;99542.84;;;9.63;100.00
64354;BME280;50681;53.334;-6.536;2023-03-26T03:40:38;99536.72;;;9.48;100.00
64354;BME280;50681;53.334;-6.536;2023-03-26T03:43:04;99531.50;;;9.52;100.00
64354;BME280;50681;53.334;-6.536;2023-03-26T03:45:29;99540.63;;;9.65;100.00
64354;BME280;50681;53.334;-6.536;2023-03-26T03:47:55;99538.56;;;9.62;100.00
64354;BME280;50681;53.334;-6.536;2023-03-26T03:50:20;99549.22;;;9.67;100.00
64354;BME280;50681;53.334;-6.536;2023-03-26T03:52:46;99554.59;;;9.67;100.00
64354;BME280;50681;53.334;-6.536;2023-03-26T03:55:11;99558.91;;;9.68;100.00
64354;BME280;50681;53.334;-6.536;2023-03-26T03:57:38;99568.38;;;9.65;100.00
64354;BME280;50681;53.334;-6.536;2023-03-26T04:00:05;99548.28;;;9.49;100.00
64354;BME280;50681;53.334;-6.536;2023-03-26T04:02:33;99562.00;;;9.61;100.00
64354;BME280;50681;53.334;-6.536;2023-03-26T04:05:03;99574.50;;;9.80;100.00
64354;BME280;50681;53.334;-6.536;2023-03-26T04:07:30;99588.28;;;9.55;100.00
64354;BME280;50681;53.334;-6.536;2023-03-26T04:09:59;99559.44;;;9.56;100.00
64354;BME280;50681;53.334;-6.536;2023-03-26T04:12:27;99569.81;;;9.63;100.00
64354;BME280;50681;53.334;-6.536;2023-03-26T04:14:53;99590.31;;;9.73;100.00
64354;BME280;50681;53.334;-6.536;2023-03-26T04:17:19;99577.44;;;9.47;100.00
64354;BME280;50681;53.334;-6.536;2023-03-26T04:19:46;99593.56;;;9.61;100.00
64354;BME280;50681;53.334;-6.536;2023-03-26T04:22:12;99563.41;;;9.36;100.00
64354;BME280;50681;53.334;-6.536;2023-03-26T04:24:37;99588.81;;;9.44;100.00
64354;BME280;50681;53.334;-6.536;2023-03-26T04:27:05;99587.19;;;9.56;100.00
64354;BME280;50681;53.334;-6.536;2023-03-26T04:29:37;99605.81;;;9.44;100.00
64354;BME280;50681;53.334;-6.536;2023-03-26T04:32:18;99602.50;;;9.47;100.00
64354;BME280;50681;53.334;-6.536;2023-03-26T04:34:46;99600.22;;;9.40;100.00
64354;BME280;50681;53.334;-6.536;2023-03-26T04:37:19;99602.28;;;9.44;100.00
64354;BME280;50681;53.334;-6.536;2023-03-26T04:39:46;99617.34;;;9.45;100.00
64354;BME280;50681;53.334;-6.536;2023-03-26T04:42:12;99626.91;;;9.51;100.00
64354;BME280;50681;53.334;-6.536;2023-03-26T04:44:38;99623.84;;;9.44;100.00
64354;BME280;50681;53.334;-6.536;2023-03-26T04:47:06;99648.19;;;9.52;100.00
64354;BME280;50681;53.334;-6.536;2023-03-26T04:49:32;99622.91;;;9.25;100.00
64354;BME280;50681;53.334;-6.536;2023-03-26T04:51:57;99644.53;;;9.34;100.00
64354;BME280;50681;53.334;-6.536;2023-03-26T04:54:22;99662.44;;;9.53;100.00
64354;BME280;50681;53.334;-6.536;2023-03-26T04:56:58;99662.53;;;9.62;100.00
64354;BME280;50681;53.334;-6.536;2023-03-26T04:59:29;99675.78;;;9.72;100.00
64354;BME280;50681;53.334;-6.536;2023-03-26T05:01:59;99670.38;;;9.72;100.00
64354;BME280;50681;53.334;-6.536;2023-03-26T05:04:25;99671.59;;;9.66;100.00
64354;BME280;50681;53.334;-6.536;2023-03-26T05:06:54;99671.59;;;9.66;100.00
64354;BME280;50681;53.334;-6.536;2023-03-26T05:09:21;99685.97;;;9.75;100.00
64354;BME280;50681;53.334;-6.536;2023-03-26T05:11:46;99689.75;;;9.74;100.00
64354;BME280;50681;53.334;-6.536;2023-03-26T05:14:12;99700.22;;;9.76;100.00
64354;BME280;50681;53.334;-6.536;2023-03-26T05:16:38;99695.50;;;9.59;100.00
64354;BME280;50681;53.334;-6.536;2023-03-26T05:19:04;99712.91;;;9.75;100.00
64354;BME280;50681;53.334;-6.536;2023-03-26T05:21:29;99710.94;;;9.67;100.00
64354;BME280;50681;53.334;-6.536;2023-03-26T05:23:55;99722.09;;;9.74;100.00
64354;BME280;50681;53.334;-6.536;2023-03-26T05:26:20;99716.59;;;9.79;100.00
64354;BME280;50681;53.334;-6.536;2023-03-26T05:28:45;99719.41;;;9.74;100.00
64354;BME280;50681;53.334;-6.536;2023-03-26T05:31:11;99734.25;;;9.85;100.00
64354;BME280;50681;53.334;-6.536;2023-03-26T05:33:37;99741.53;;;9.85;100.00
64354;BME280;50681;53.334;-6.536;2023-03-26T05:36:07;99728.47;;;9.78;100.00
64354;BME280;50681;53.334;-6.536;2023-03-26T05:38:34;99724.41;;;9.67;100.00
64354;BME280;50681;53.334;-6.536;2023-03-26T05:41:06;99753.31;;;9.89;100.00
64354;BME280;50681;53.334;-6.536;2023-03-26T05:43:32;99749.72;;;9.80;100.00
64354;BME280;50681;53.334;-6.536;2023-03-26T05:45:58;99752.38;;;9.71;100.00
64354;BME280;50681;53.334;-6.536;2023-03-26T05:48:24;99749.38;;;9.59;100.00
64354;BME280;50681;53.334;-6.536;2023-03-26T05:50:51;99786.97;;;9.92;100.00
64354;BME280;50681;53.334;-6.536;2023-03-26T05:53:18;99786.69;;;9.79;100.00
64354;BME280;50681;53.334;-6.536;2023-03-26T05:55:45;99787.75;;;9.92;100.00
64354;BME280;50681;53.334;-6.536;2023-03-26T05:58:12;99792.78;;;9.71;100.00
64354;BME280;50681;53.334;-6.536;2023-03-26T06:00:38;99822.13;;;9.73;100.00
64354;BME280;50681;53.334;-6.536;2023-03-26T06:03:06;99824.56;;;10.11;100.00
64354;BME280;50681;53.334;-6.536;2023-03-26T06:05:37;99813.44;;;10.26;100.00
64354;BME280;50681;53.334;-6.536;2023-03-26T06:08:04;99813.25;;;9.58;100.00
64354;BME280;50681;53.334;-6.536;2023-03-26T06:10:29;99844.38;;;9.92;100.00
64354;BME280;50681;53.334;-6.536;2023-03-26T06:12:55;99828.69;;;10.08;100.00
64354;BME280;50681;53.334;-6.536;2023-03-26T06:15:21;99846.41;;;9.87;100.00
64354;BME280;50681;53.334;-6.536;2023-03-26T06:17:46;99865.13;;;10.06;100.00
64354;BME280;50681;53.334;-6.536;2023-03-26T06:20:12;99859.84;;;10.14;100.00
64354;BME280;50681;53.334;-6.536;2023-03-26T06:22:38;99856.38;;;9.86;100.00
64354;BME280;50681;53.334;-6.536;2023-03-26T06:25:05;99863.75;;;9.94;100.00
64354;BME280;50681;53.334;-6.536;2023-03-26T06:27:30;99870.75;;;9.67;100.00
64354;BME280;50681;53.334;-6.536;2023-03-26T06:29:56;99886.06;;;9.72;100.00
64354;BME280;50681;53.334;-6.536;2023-03-26T06:32:21;99892.53;;;9.85;100.00
64354;BME280;50681;53.334;-6.536;2023-03-26T06:34:47;99876.94;;;9.54;100.00
64354;BME280;50681;53.334;-6.536;2023-03-26T06:37:12;99895.84;;;9.68;100.00
64354;BME280;50681;53.334;-6.536;2023-03-26T06:39:38;99903.78;;;9.59;100.00
64354;BME280;50681;53.334;-6.536;2023-03-26T06:42:03;99896.63;;;9.54;100.00
64354;BME280;50681;53.334;-6.536;2023-03-26T06:44:29;99917.00;;;9.61;100.00
64354;BME280;50681;53.334;-6.536;2023-03-26T06:46:54;99919.06;;;9.36;100.00
64354;BME280;50681;53.334;-6.536;2023-03-26T06:49:20;99924.25;;;9.60;100.00
64354;BME280;50681;53.334;-6.536;2023-03-26T06:51:46;99920.56;;;9.56;100.00
64354;BME280;50681;53.334;-6.536;2023-03-26T06:54:12;99924.66;;;9.53;100.00
64354;BME280;50681;53.334;-6.536;2023-03-26T06:56:37;99933.44;;;9.45;100.00
64354;BME280;50681;53.334;-6.536;2023-03-26T06:59:03;99936.66;;;9.61;100.00
64354;BME280;50681;53.334;-6.536;2023-03-26T07:01:29;99959.03;;;9.76;100.00
64354;BME280;50681;53.334;-6.536;2023-03-26T07:03:54;99947.91;;;9.49;100.00
64354;BME280;50681;53.334;-6.536;2023-03-26T07:06:20;99975.28;;;9.56;100.00
64354;BME280;50681;53.334;-6.536;2023-03-26T07:08:45;99968.81;;;9.58;100.00
64354;BME280;50681;53.334;-6.536;2023-03-26T07:11:11;99967.19;;;9.56;100.00
64354;BME280;50681;53.334;-6.536;2023-03-26T07:13:36;99969.38;;;9.54;100.00
64354;BME280;50681;53.334;-6.536;2023-03-26T07:16:05;99980.09;;;9.60;100.00
64354;BME280;50681;53.334;-6.536;2023-03-26T07:18:30;100009.66;;;9.65;100.00
64354;BME280;50681;53.334;-6.536;2023-03-26T07:20:56;100008.59;;;9.47;100.00
64354;BME280;50681;53.334;-6.536;2023-03-26T07:23:22;100003.19;;;9.47;100.00
64354;BME280;50681;53.334;-6.536;2023-03-26T07:25:47;100016.31;;;9.53;100.00
64354;BME280;50681;53.334;-6.536;2023-03-26T07:31:02;100038.78;;;9.63;100.00
64354;BME280;50681;53.334;-6.536;2023-03-26T07:33:56;100048.00;;;9.76;100.00
64354;BME280;50681;53.334;-6.536;2023-03-26T07:37:20;100059.84;;;9.61;100.00
64354;BME280;50681;53.334;-6.536;2023-03-26T07:45:24;100074.41;;;9.60;100.00
64354;BME280;50681;53.334;-6.536;2023-03-26T07:47:48;100069.97;;;9.50;100.00
64354;BME280;50681;53.334;-6.536;2023-03-26T07:50:22;100080.56;;;9.79;100.00
64354;BME280;50681;53.334;-6.536;2023-03-26T07:52:48;100077.91;;;9.60;100.00
64354;BME280;50681;53.334;-6.536;2023-03-26T07:55:14;100109.31;;;9.70;100.00
64354;BME280;50681;53.334;-6.536;2023-03-26T08:00:35;100095.41;;;9.63;100.00
64354;BME280;50681;53.334;-6.536;2023-03-26T08:08:41;100107.03;;;9.58;100.00
64354;BME280;50681;53.334;-6.536;2023-03-26T08:11:39;100140.50;;;9.90;100.00
64354;BME280;50681;53.334;-6.536;2023-03-26T08:17:12;100158.88;;;9.88;100.00
64354;BME280;50681;53.334;-6.536;2023-03-26T08:22:26;100150.50;;;10.23;100.00
64354;BME280;50681;53.334;-6.536;2023-03-26T08:30:38;100180.25;;;9.84;100.00
64354;BME280;50681;53.334;-6.536;2023-03-26T08:33:11;100180.97;;;10.09;100.00
64354;BME280;50681;53.334;-6.536;2023-03-26T08:35:37;100202.63;;;10.37;100.00
64354;BME280;50681;53.334;-6.536;2023-03-26T08:38:17;100190.47;;;10.21;100.00
64354;BME280;50681;53.334;-6.536;2023-03-26T08:54:12;100263.69;;;10.14;100.00
64354;BME280;50681;53.334;-6.536;2023-03-26T08:56:51;100270.41;;;9.78;100.00
64354;BME280;50681;53.334;-6.536;2023-03-26T09:11:57;100304.16;;;10.85;100.00
64354;BME280;50681;53.334;-6.536;2023-03-26T09:49:28;100424.34;;;11.02;100.00
64354;BME280;50681;53.334;-6.536;2023-03-26T09:57:59;100439.22;;;11.18;100.00
64354;BME280;50681;53.334;-6.536;2023-03-26T10:08:47;100467.44;;;10.93;100.00
64354;BME280;50681;53.334;-6.536;2023-03-26T10:31:19;100507.06;;;11.50;100.00
64354;BME280;50681;53.334;-6.536;2023-03-26T10:34:03;100515.31;;;11.59;100.00
64354;BME280;50681;53.334;-6.536;2023-03-26T10:47:58;100553.09;;;11.64;100.00
64354;BME280;50681;53.334;-6.536;2023-03-26T10:55:40;100566.41;;;10.84;100.00
64354;BME280;50681;53.334;-6.536;2023-03-26T10:58:14;100591.13;;;10.96;100.00
64354;BME280;50681;53.334;-6.536;2023-03-26T11:00:46;100590.91;;;11.12;100.00
64354;BME280;50681;53.334;-6.536;2023-03-26T11:06:18;100592.28;;;10.90;100.00
64354;BME280;50681;53.334;-6.536;2023-03-26T11:28:09;100638.91;;;11.58;100.00
64354;BME280;50681;53.334;-6.536;2023-03-26T11:30:47;100651.53;;;11.82;100.00
64354;BME280;50681;53.334;-6.536;2023-03-26T11:33:21;100642.91;;;11.80;100.00
64354;BME280;50681;53.334;-6.536;2023-03-26T11:35:50;100632.91;;;11.61;100.00
64354;BME280;50681;53.334;-6.536;2023-03-26T11:40:53;100645.31;;;12.01;100.00
64354;BME280;50681;53.334;-6.536;2023-03-26T11:43:24;100654.75;;;12.03;100.00
64354;BME280;50681;53.334;-6.536;2023-03-26T11:45:52;100660.78;;;12.14;100.00
64354;BME280;50681;53.334;-6.536;2023-03-26T11:48:46;100670.59;;;12.10;100.00
64354;BME280;50681;53.334;-6.536;2023-03-26T11:53:54;100708.16;;;12.31;100.00
64354;BME280;50681;53.334;-6.536;2023-03-26T11:56:56;100714.75;;;12.25;100.00
64354;BME280;50681;53.334;-6.536;2023-03-26T11:59:27;100730.72;;;12.40;100.00
64354;BME280;50681;53.334;-6.536;2023-03-26T12:02:15;100716.84;;;12.28;100.00
64354;BME280;50681;53.334;-6.536;2023-03-26T12:04:43;100731.16;;;12.14;100.00
64354;BME280;50681;53.334;-6.536;2023-03-26T12:07:29;100741.72;;;12.30;100.00
64354;BME280;50681;53.334;-6.536;2023-03-26T12:10:05;100750.41;;;12.46;100.00
64354;BME280;50681;53.334;-6.536;2023-03-26T12:12:36;100753.66;;;12.29;100.00
64354;BME280;50681;53.334;-6.536;2023-03-26T12:15:03;100767.16;;;12.15;100.00
64354;BME280;50681;53.334;-6.536;2023-03-26T12:17:37;100775.25;;;12.34;100.00
64354;BME280;50681;53.334;-6.536;2023-03-26T12:22:52;100757.94;;;12.49;100.00
64354;BME280;50681;53.334;-6.536;2023-03-26T12:25:32;100760.59;;;12.68;100.00
64354;BME280;50681;53.334;-6.536;2023-03-26T12:32:56;100789.03;;;12.52;100.00
64354;BME280;50681;53.334;-6.536;2023-03-26T12:35:26;100784.28;;;12.76;100.00
64354;BME280;50681;53.334;-6.536;2023-03-26T12:37:55;100804.69;;;12.88;100.00
64354;BME280;50681;53.334;-6.536;2023-03-26T12:43:00;100797.59;;;13.20;100.00
64354;BME280;50681;53.334;-6.536;2023-03-26T12:45:40;100798.88;;;12.94;100.00
64354;BME280;50681;53.334;-6.536;2023-03-26T12:48:08;100822.91;;;13.15;100.00
64354;BME280;50681;53.334;-6.536;2023-03-26T12:50:57;100808.03;;;13.13;100.00
64354;BME280;50681;53.334;-6.536;2023-03-26T12:53:37;100845.81;;;13.23;100.00
64354;BME280;50681;53.334;-6.536;2023-03-26T12:56:18;100854.63;;;13.01;100.00
64354;BME280;50681;53.334;-6.536;2023-03-26T12:59:13;100859.63;;;13.07;100.00
64354;BME280;50681;53.334;-6.536;2023-03-26T13:02:05;100859.72;;;12.69;100.00
64354;BME280;50681;53.334;-6.536;2023-03-26T13:07:20;100866.63;;;12.42;100.00
64354;BME280;50681;53.334;-6.536;2023-03-26T13:12:45;100858.66;;;12.51;100.00
64354;BME280;50681;53.334;-6.536;2023-03-26T13:15:39;100885.63;;;12.75;100.00
64354;BME280;50681;53.334;-6.536;2023-03-26T13:18:31;100884.56;;;12.57;100.00
64354;BME280;50681;53.334;-6.536;2023-03-26T13:37:31;100892.81;;;13.32;100.00
64354;BME280;50681;53.334;-6.536;2023-03-26T13:45:32;100912.84;;;13.03;100.00
64354;BME280;50681;53.334;-6.536;2023-03-26T13:48:18;100898.00;;;13.15;100.00
64354;BME280;50681;53.334;-6.536;2023-03-26T13:50:55;100907.00;;;12.96;100.00
64354;BME280;50681;53.334;-6.536;2023-03-26T13:53:40;100894.19;;;13.16;100.00
64354;BME280;50681;53.334;-6.536;2023-03-26T13:56:22;100909.78;;;13.38;100.00
64354;BME280;50681;53.334;-6.536;2023-03-26T13:58:59;100889.38;;;13.27;100.00
64354;BME280;50681;53.334;-6.536;2023-03-26T14:01:39;100923.72;;;13.78;100.00
64354;BME280;50681;53.334;-6.536;2023-03-26T14:04:40;100942.44;;;13.80;100.00
64354;BME280;50681;53.334;-6.536;2023-03-26T14:16:11;100940.41;;;12.72;100.00
64354;BME280;50681;53.334;-6.536;2023-03-26T14:19:00;100939.50;;;12.96;100.00
64354;BME280;50681;53.334;-6.536;2023-03-26T14:22:01;100961.88;;;13.21;100.00
64354;BME280;50681;53.334;-6.536;2023-03-26T14:33:48;100975.41;;;13.07;100.00
64354;BME280;50681;53.334;-6.536;2023-03-26T14:42:50;100932.56;;;12.90;100.00
64354;BME280;50681;53.334;-6.536;2023-03-26T14:53:59;100972.34;;;12.94;100.00
64354;BME280;50681;53.334;-6.536;2023-03-26T14:56:44;100985.97;;;12.51;100.00
64354;BME280;50681;53.334;-6.536;2023-03-26T15:07:35;101013.44;;;13.54;100.00
64354;BME280;50681;53.334;-6.536;2023-03-26T15:13:14;101002.78;;;13.25;100.00
64354;BME280;50681;53.334;-6.536;2023-03-26T15:16:11;101041.69;;;13.67;100.00
64354;BME280;50681;53.334;-6.536;2023-03-26T15:57:51;101064.28;;;13.10;100.00
64354;BME280;50681;53.334;-6.536;2023-03-26T16:00:22;101065.06;;;13.11;100.00
64354;BME280;50681;53.334;-6.536;2023-03-26T16:05:58;101099.44;;;12.96;100.00
64354;BME280;50681;53.334;-6.536;2023-03-26T16:11:05;101083.88;;;12.39;100.00
64354;BME280;50681;53.334;-6.536;2023-03-26T16:13:39;101095.69;;;12.48;100.00
64354;BME280;50681;53.334;-6.536;2023-03-26T16:16:24;101113.59;;;12.44;100.00
64354;BME280;50681;53.334;-6.536;2023-03-26T16:22:06;101117.03;;;12.26;100.00
64354;BME280;50681;53.334;-6.536;2023-03-26T16:24:39;101093.97;;;12.04;100.00
64354;BME280;50681;53.334;-6.536;2023-03-26T16:30:30;101147.91;;;12.25;100.00
64354;BME280;50681;53.334;-6.536;2023-03-26T16:33:18;101149.31;;;12.22;100.00
64354;BME280;50681;53.334;-6.536;2023-03-26T16:38:49;101161.50;;;12.19;100.00
64354;BME280;50681;53.334;-6.536;2023-03-26T16:41:28;101149.63;;;12.15;100.00
64354;BME280;50681;53.334;-6.536;2023-03-26T16:44:02;101181.97;;;12.31;100.00
64354;BME280;50681;53.334;-6.536;2023-03-26T16:46:41;101178.69;;;12.34;100.00
64354;BME280;50681;53.334;-6.536;2023-03-26T17:11:05;101244.03;;;11.82;100.00
64354;BME280;50681;53.334;-6.536;2023-03-26T17:16:48;101248.75;;;11.66;100.00
64354;BME280;50681;53.334;-6.536;2023-03-26T17:22:46;101239.28;;;11.64;100.00
64354;BME280;50681;53.334;-6.536;2023-03-26T17:43:46;101292.88;;;11.51;100.00
64354;BME280;50681;53.334;-6.536;2023-03-26T17:49:13;101282.69;;;11.32;100.00
64354;BME280;50681;53.334;-6.536;2023-03-26T17:52:02;101307.28;;;11.41;100.00
64354;BME280;50681;53.334;-6.536;2023-03-26T17:54:31;101313.44;;;11.52;100.00
64354;BME280;50681;53.334;-6.536;2023-03-26T17:57:05;101291.06;;;11.36;100.00
64354;BME280;50681;53.334;-6.536;2023-03-26T17:59:39;101325.06;;;11.58;100.00
64354;BME280;50681;53.334;-6.536;2023-03-26T18:02:13;101301.88;;;11.36;100.00
64354;BME280;50681;53.334;-6.536;2023-03-26T18:04:44;101306.53;;;11.15;100.00
64354;BME280;50681;53.334;-6.536;2023-03-26T18:10:36;101342.19;;;11.22;100.00
64354;BME280;50681;53.334;-6.536;2023-03-26T18:18:46;101320.63;;;10.96;100.00
64354;BME280;50681;53.334;-6.536;2023-03-26T18:21:27;101324.41;;;10.85;100.00
64354;BME280;50681;53.334;-6.536;2023-03-26T18:23:56;101332.50;;;10.80;100.00
64354;BME280;50681;53.334;-6.536;2023-03-26T18:26:31;101341.44;;;10.85;100.00
64354;BME280;50681;53.334;-6.536;2023-03-26T18:29:24;101331.19;;;10.67;100.00
64354;BME280;50681;53.334;-6.536;2023-03-26T18:31:58;101337.91;;;10.64;100.00
64354;BME280;50681;53.334;-6.536;2023-03-26T18:34:26;101359.00;;;10.72;100.00
64354;BME280;50681;53.334;-6.536;2023-03-26T18:40:16;101359.00;;;10.52;100.00
64354;BME280;50681;53.334;-6.536;2023-03-26T18:42:49;101372.22;;;10.64;100.00
64354;BME280;50681;53.334;-6.536;2023-03-26T18:45:31;101380.88;;;10.50;100.00
64354;BME280;50681;53.334;-6.536;2023-03-26T18:48:02;101370.31;;;10.38;100.00
64354;BME280;50681;53.334;-6.536;2023-03-26T18:50:33;101393.56;;;10.55;100.00
64354;BME280;50681;53.334;-6.536;2023-03-26T18:53:27;101380.31;;;10.43;100.00
64354;BME280;50681;53.334;-6.536;2023-03-26T18:55:58;101403.72;;;10.22;100.00
64354;BME280;50681;53.334;-6.536;2023-03-26T18:58:38;101368.84;;;10.05;100.00
64354;BME280;50681;53.334;-6.536;2023-03-26T19:01:11;101366.69;;;10.02;100.00
64354;BME280;50681;53.334;-6.536;2023-03-26T19:03:43;101361.03;;;9.98;100.00
64354;BME280;50681;53.334;-6.536;2023-03-26T19:06:10;101391.81;;;10.07;100.00
64354;BME280;50681;53.334;-6.536;2023-03-26T19:08:38;101387.72;;;9.99;100.00
64354;BME280;50681;53.334;-6.536;2023-03-26T19:11:10;101407.97;;;10.02;100.00
64354;BME280;50681;53.334;-6.536;2023-03-26T19:13:37;101404.97;;;9.98;100.00
64354;BME280;50681;53.334;-6.536;2023-03-26T19:16:22;101377.41;;;9.81;100.00
64354;BME280;50681;53.334;-6.536;2023-03-26T19:18:49;101388.22;;;9.86;100.00
64354;BME280;50681;53.334;-6.536;2023-03-26T19:21:19;101375.47;;;9.66;100.00
64354;BME280;50681;53.334;-6.536;2023-03-26T19:23:48;101427.66;;;9.97;100.00